sensor_id;sensor_type;location;lat;lon;timestamp;temperature;humidity
44063;DHT22;29727;47.606;19.130;2023-05-07T02:57:27;16.70;78.30
44063;DHT22;29727;47.606;19.130;2023-05-07T02:59:52;16.80;78.50
44063;DHT22;29727;47.606;19.130;2023-05-07T03:02:18;16.80;79.00
44063;DHT22;29727;47.606;19.130;2023-05-07T03:04:44;16.80;79.10
44063;DHT22;29727;47.606;19.130;2023-05-07T03:07:09;16.70;78.30
44063;DHT22;29727;47.606;19.130;2023-05-07T03:09:35;16.80;78.90
44063;DHT22;29727;47.606;19.130;2023-05-07T03:12:00;16.70;78.90
44063;DHT22;29727;47.606;19.130;2023-05-07T03:14:27;16.70;79.00
44063;DHT22;29727;47.606;19.130;2023-05-07T03:16:52;16.70;79.10
44063;DHT22;29727;47.606;19.130;2023-05-07T03:19:18;16.60;78.70
44063;DHT22;29727;47.606;19.130;2023-05-07T03:21:44;16.60;78.80
44063;DHT22;29727;47.606;19.130;2023-05-07T03:24:09;16.60;78.90
44063;DHT22;29727;47.606;19.130;2023-05-07T03:26:35;16.60;79.00
44063;DHT22;29727;47.606;19.130;2023-05-07T03:29:00;16.60;79.00
44063;DHT22;29727;47.606;19.130;2023-05-07T03:31:26;16.60;79.70
44063;DHT22;29727;47.606;19.130;2023-05-07T03:33:56;16.50;79.80
44063;DHT22;29727;47.606;19.130;2023-05-07T03:36:23;16.50;79.90
44063;DHT22;29727;47.606;19.130;2023-05-07T03:38:49;16.50;80.00
44063;DHT22;29727;47.606;19.130;2023-05-07T03:41:15;16.50;80.10
44063;DHT22;29727;47.606;19.130;2023-05-07T03:43:41;16.50;80.20
44063;DHT22;29727;47.606;19.130;2023-05-07T03:46:07;16.50;80.40
44063;DHT22;29727;47.606;19.130;2023-05-07T03:48:32;16.50;80.60
44063;DHT22;29727;47.606;19.130;2023-05-07T03:50:59;16.50;80.10
44063;DHT22;29727;47.606;19.130;2023-05-07T03:53:24;16.40;80.10
44063;DHT22;29727;47.606;19.130;2023-05-07T03:55:50;16.40;80.50
44063;DHT22;29727;47.606;19.130;2023-05-07T03:58:16;16.40;80.80
44063;DHT22;29727;47.606;19.130;2023-05-07T04:00:42;16.50;80.90
44063;DHT22;29727;47.606;19.130;2023-05-07T04:03:08;16.50;81.00
44063;DHT22;29727;47.606;19.130;2023-05-07T04:05:34;16.40;81.00
44063;DHT22;29727;47.606;19.130;2023-05-07T04:10:26;16.40;80.60
44063;DHT22;29727;47.606;19.130;2023-05-07T04:12:53;16.50;80.50
44063;DHT22;29727;47.606;19.130;2023-05-07T04:15:19;16.50;81.10
44063;DHT22;29727;47.606;19.130;2023-05-07T04:17:45;16.50;81.10
44063;DHT22;29727;47.606;19.130;2023-05-07T04:20:16;16.50;80.90
44063;DHT22;29727;47.606;19.130;2023-05-07T04:22:42;16.50;81.00
44063;DHT22;29727;47.606;19.130;2023-05-07T04:25:09;16.50;80.60
44063;DHT22;29727;47.606;19.130;2023-05-07T04:27:35;16.50;80.80
44063;DHT22;29727;47.606;19.130;2023-05-07T04:30:02;16.40;81.30
44063;DHT22;29727;47.606;19.130;2023-05-07T04:32:28;16.50;81.30
44063;DHT22;29727;47.606;19.130;2023-05-07T04:34:57;16.50;81.40
44063;DHT22;29727;47.606;19.130;2023-05-07T04:37:23;16.50;81.30
44063;DHT22;29727;47.606;19.130;2023-05-07T04:39:48;16.50;81.20
44063;DHT22;29727;47.606;19.130;2023-05-07T04:42:15;16.50;81.80
44063;DHT22;29727;47.606;19.130;2023-05-07T04:44:41;16.50;81.90
44063;DHT22;29727;47.606;19.130;2023-05-07T04:47:07;16.50;81.90
44063;DHT22;29727;47.606;19.130;2023-05-07T04:49:33;16.60;82.10
44063;DHT22;29727;47.606;19.130;2023-05-07T04:51:58;16.60;82.20
44063;DHT22;29727;47.606;19.130;2023-05-07T04:54:24;16.60;81.70
44063;DHT22;29727;47.606;19.130;2023-05-07T04:56:50;16.60;82.00
44063;DHT22;29727;47.606;19.130;2023-05-07T04:59:16;16.70;83.30
44063;DHT22;29727;47.606;19.130;2023-05-07T05:01:41;16.70;84.20
44063;DHT22;29727;47.606;19.130;2023-05-07T05:04:07;16.70;84.50
44063;DHT22;29727;47.606;19.130;2023-05-07T05:06:33;16.80;84.90
44063;DHT22;29727;47.606;19.130;2023-05-07T05:08:58;16.80;84.90
44063;DHT22;29727;47.606;19.130;2023-05-07T05:11:24;16.80;85.20
44063;DHT22;29727;47.606;19.130;2023-05-07T05:13:50;16.80;85.30
44063;DHT22;29727;47.606;19.130;2023-05-07T05:16:16;16.80;85.70
44063;DHT22;29727;47.606;19.130;2023-05-07T05:18:41;16.80;85.90
44063;DHT22;29727;47.606;19.130;2023-05-07T05:21:07;16.90;86.50
44063;DHT22;29727;47.606;19.130;2023-05-07T05:23:33;16.80;86.40
44063;DHT22;29727;47.606;19.130;2023-05-07T05:25:59;16.90;86.00
44063;DHT22;29727;47.606;19.130;2023-05-07T05:28:24;16.90;86.50
44063;DHT22;29727;47.606;19.130;2023-05-07T05:30:50;16.90;86.40
44063;DHT22;29727;47.606;19.130;2023-05-07T05:33:16;17.00;86.30
44063;DHT22;29727;47.606;19.130;2023-05-07T05:35:42;17.00;86.00
44063;DHT22;29727;47.606;19.130;2023-05-07T05:38:08;17.10;85.80
44063;DHT22;29727;47.606;19.130;2023-05-07T05:40:33;17.10;85.00
44063;DHT22;29727;47.606;19.130;2023-05-07T05:42:59;17.20;84.70
44063;DHT22;29727;47.606;19.130;2023-05-07T05:45:25;17.30;84.70
44063;DHT22;29727;47.606;19.130;2023-05-07T05:47:51;17.30;84.70
44063;DHT22;29727;47.606;19.130;2023-05-07T05:50:17;17.40;84.50
44063;DHT22;29727;47.606;19.130;2023-05-07T05:52:42;17.50;84.50
44063;DHT22;29727;47.606;19.130;2023-05-07T05:55:09;17.50;84.20
44063;DHT22;29727;47.606;19.130;2023-05-07T05:57:35;17.60;84.40
44063;DHT22;29727;47.606;19.130;2023-05-07T06:00:01;17.60;84.00
44063;DHT22;29727;47.606;19.130;2023-05-07T06:02:28;17.70;83.70
44063;DHT22;29727;47.606;19.130;2023-05-07T06:04:53;17.80;82.20
44063;DHT22;29727;47.606;19.130;2023-05-07T06:07:19;17.80;81.70
44063;DHT22;29727;47.606;19.130;2023-05-07T06:09:45;17.90;81.30
44063;DHT22;29727;47.606;19.130;2023-05-07T06:12:11;18.00;80.60
44063;DHT22;29727;47.606;19.130;2023-05-07T06:14:37;18.10;80.40
44063;DHT22;29727;47.606;19.130;2023-05-07T06:17:03;18.10;79.30
44063;DHT22;29727;47.606;19.130;2023-05-07T06:19:28;18.20;79.60
44063;DHT22;29727;47.606;19.130;2023-05-07T06:21:54;18.30;79.50
44063;DHT22;29727;47.606;19.130;2023-05-07T06:24:22;18.30;79.20
44063;DHT22;29727;47.606;19.130;2023-05-07T06:26:48;18.40;77.70
44063;DHT22;29727;47.606;19.130;2023-05-07T06:29:13;18.40;77.40
44063;DHT22;29727;47.606;19.130;2023-05-07T06:42:21;18.90;75.40
44063;DHT22;29727;47.606;19.130;2023-05-07T06:44:47;19.00;75.70
44063;DHT22;29727;47.606;19.130;2023-05-07T06:47:13;19.10;75.80
44063;DHT22;29727;47.606;19.130;2023-05-07T06:49:38;19.20;74.40
44063;DHT22;29727;47.606;19.130;2023-05-07T06:52:04;19.30;71.60
44063;DHT22;29727;47.606;19.130;2023-05-07T06:54:30;19.40;71.50
44063;DHT22;29727;47.606;19.130;2023-05-07T06:56:55;19.50;71.70
44063;DHT22;29727;47.606;19.130;2023-05-07T06:59:21;19.60;71.00
44063;DHT22;29727;47.606;19.130;2023-05-07T07:01:47;19.70;71.40
44063;DHT22;29727;47.606;19.130;2023-05-07T07:04:12;19.80;70.10
44063;DHT22;29727;47.606;19.130;2023-05-07T07:06:38;19.90;71.60
44063;DHT22;29727;47.606;19.130;2023-05-07T07:09:04;20.00;72.10
44063;DHT22;29727;47.606;19.130;2023-05-07T07:11:29;20.10;70.70
44063;DHT22;29727;47.606;19.130;2023-05-07T07:13:55;20.20;69.30
44063;DHT22;29727;47.606;19.130;2023-05-07T07:16:22;20.30;68.90
44063;DHT22;29727;47.606;19.130;2023-05-07T07:18:47;20.40;69.00
44063;DHT22;29727;47.606;19.130;2023-05-07T07:21:13;20.50;69.50
44063;DHT22;29727;47.606;19.130;2023-05-07T07:23:39;20.60;69.90
44063;DHT22;29727;47.606;19.130;2023-05-07T07:26:04;20.70;67.10
44063;DHT22;29727;47.606;19.130;2023-05-07T07:28:32;20.70;67.70
44063;DHT22;29727;47.606;19.130;2023-05-07T07:30:57;20.80;68.00
44063;DHT22;29727;47.606;19.130;2023-05-07T07:33:23;20.90;66.70
44063;DHT22;29727;47.606;19.130;2023-05-07T07:35:48;20.90;67.00
44063;DHT22;29727;47.606;19.130;2023-05-07T07:38:14;21.00;67.30
44063;DHT22;29727;47.606;19.130;2023-05-07T07:40:40;21.00;67.60
44063;DHT22;29727;47.606;19.130;2023-05-07T07:43:05;21.10;67.70
44063;DHT22;29727;47.606;19.130;2023-05-07T07:45:31;21.20;66.00
44063;DHT22;29727;47.606;19.130;2023-05-07T07:47:57;21.30;64.50
44063;DHT22;29727;47.606;19.130;2023-05-07T07:50:23;21.40;64.50
44063;DHT22;29727;47.606;19.130;2023-05-07T07:52:48;21.40;63.40
44063;DHT22;29727;47.606;19.130;2023-05-07T07:55:14;21.50;64.50
44063;DHT22;29727;47.606;19.130;2023-05-07T07:57:43;21.50;65.10
44063;DHT22;29727;47.606;19.130;2023-05-07T08:00:09;21.60;63.50
44063;DHT22;29727;47.606;19.130;2023-05-07T08:02:35;21.60;63.70
44063;DHT22;29727;47.606;19.130;2023-05-07T08:05:01;21.60;64.20
44063;DHT22;29727;47.606;19.130;2023-05-07T08:07:26;21.80;62.40
44063;DHT22;29727;47.606;19.130;2023-05-07T08:09:52;21.80;63.00
44063;DHT22;29727;47.606;19.130;2023-05-07T08:12:18;21.90;62.80
44063;DHT22;29727;47.606;19.130;2023-05-07T08:14:43;22.00;62.90
44063;DHT22;29727;47.606;19.130;2023-05-07T08:17:09;22.10;63.00
44063;DHT22;29727;47.606;19.130;2023-05-07T08:19:35;22.10;61.80
44063;DHT22;29727;47.606;19.130;2023-05-07T08:22:02;22.20;62.60
44063;DHT22;29727;47.606;19.130;2023-05-07T08:24:28;22.20;61.20
44063;DHT22;29727;47.606;19.130;2023-05-07T08:26:53;22.30;61.00
44063;DHT22;29727;47.606;19.130;2023-05-07T08:29:19;22.30;61.00
44063;DHT22;29727;47.606;19.130;2023-05-07T08:31:45;22.40;59.40
44063;DHT22;29727;47.606;19.130;2023-05-07T08:34:11;22.40;59.60
44063;DHT22;29727;47.606;19.130;2023-05-07T08:36:36;22.40;58.60
44063;DHT22;29727;47.606;19.130;2023-05-07T08:39:03;22.50;57.20
44063;DHT22;29727;47.606;19.130;2023-05-07T08:41:29;22.50;57.30
44063;DHT22;29727;47.606;19.130;2023-05-07T08:43:58;22.40;57.10
44063;DHT22;29727;47.606;19.130;2023-05-07T08:46:25;22.40;56.90
44063;DHT22;29727;47.606;19.130;2023-05-07T08:48:52;22.30;57.60
44063;DHT22;29727;47.606;19.130;2023-05-07T08:51:19;22.30;57.60
44063;DHT22;29727;47.606;19.130;2023-05-07T08:53:46;22.40;58.80
44063;DHT22;29727;47.606;19.130;2023-05-07T08:56:14;22.40;56.80
44063;DHT22;29727;47.606;19.130;2023-05-07T08:58:41;22.40;58.30
44063;DHT22;29727;47.606;19.130;2023-05-07T09:01:14;22.40;57.20
44063;DHT22;29727;47.606;19.130;2023-05-07T09:03:41;22.50;56.90
44063;DHT22;29727;47.606;19.130;2023-05-07T09:06:07;22.50;57.40
44063;DHT22;29727;47.606;19.130;2023-05-07T09:08:33;22.50;56.50
44063;DHT22;29727;47.606;19.130;2023-05-07T09:10:59;22.60;59.40
44063;DHT22;29727;47.606;19.130;2023-05-07T09:13:26;22.70;56.90
44063;DHT22;29727;47.606;19.130;2023-05-07T09:15:52;22.80;57.00
44063;DHT22;29727;47.606;19.130;2023-05-07T09:18:18;22.90;55.20
44063;DHT22;29727;47.606;19.130;2023-05-07T09:20:44;22.90;55.40
44063;DHT22;29727;47.606;19.130;2023-05-07T09:23:09;22.90;56.20
44063;DHT22;29727;47.606;19.130;2023-05-07T09:25:36;23.00;56.40
44063;DHT22;29727;47.606;19.130;2023-05-07T09:28:03;23.00;57.60
44063;DHT22;29727;47.606;19.130;2023-05-07T09:30:30;23.10;55.10
44063;DHT22;29727;47.606;19.130;2023-05-07T09:33:00;23.20;55.90
44063;DHT22;29727;47.606;19.130;2023-05-07T09:35:26;23.30;55.90
44063;DHT22;29727;47.606;19.130;2023-05-07T09:37:57;23.40;55.00
44063;DHT22;29727;47.606;19.130;2023-05-07T09:40:32;23.50;55.60
44063;DHT22;29727;47.606;19.130;2023-05-07T09:43:09;23.70;53.40
44063;DHT22;29727;47.606;19.130;2023-05-07T09:45:36;23.70;53.50
44063;DHT22;29727;47.606;19.130;2023-05-07T09:48:05;23.80;53.40
44063;DHT22;29727;47.606;19.130;2023-05-07T09:50:43;24.00;52.40
44063;DHT22;29727;47.606;19.130;2023-05-07T09:53:14;24.10;52.60
44063;DHT22;29727;47.606;19.130;2023-05-07T09:55:40;24.20;52.80
44063;DHT22;29727;47.606;19.130;2023-05-07T09:58:07;24.30;51.80
44063;DHT22;29727;47.606;19.130;2023-05-07T10:00:33;24.40;52.70
44063;DHT22;29727;47.606;19.130;2023-05-07T10:03:00;24.40;52.70
44063;DHT22;29727;47.606;19.130;2023-05-07T10:05:27;24.30;51.70
44063;DHT22;29727;47.606;19.130;2023-05-07T10:07:53;24.20;51.50
44063;DHT22;29727;47.606;19.130;2023-05-07T10:10:19;24.00;51.20
44063;DHT22;29727;47.606;19.130;2023-05-07T10:12:45;23.90;52.70
44063;DHT22;29727;47.606;19.130;2023-05-07T10:15:12;23.80;52.90
44063;DHT22;29727;47.606;19.130;2023-05-07T10:17:39;23.70;53.80
44063;DHT22;29727;47.606;19.130;2023-05-07T10:20:06;23.60;53.60
44063;DHT22;29727;47.606;19.130;2023-05-07T10:22:38;23.50;52.80
44063;DHT22;29727;47.606;19.130;2023-05-07T10:25:06;23.50;53.10
44063;DHT22;29727;47.606;19.130;2023-05-07T10:27:36;23.50;54.00
44063;DHT22;29727;47.606;19.130;2023-05-07T10:32:46;23.40;53.70
44063;DHT22;29727;47.606;19.130;2023-05-07T10:35:18;23.50;54.40
44063;DHT22;29727;47.606;19.130;2023-05-07T10:37:45;23.40;55.40
44063;DHT22;29727;47.606;19.130;2023-05-07T10:40:12;23.40;55.80
44063;DHT22;29727;47.606;19.130;2023-05-07T10:42:38;23.40;57.00
44063;DHT22;29727;47.606;19.130;2023-05-07T10:45:14;23.30;57.50
44063;DHT22;29727;47.606;19.130;2023-05-07T10:50:38;23.30;57.50
44063;DHT22;29727;47.606;19.130;2023-05-07T10:55:49;23.30;57.30
44063;DHT22;29727;47.606;19.130;2023-05-07T11:00:47;23.40;58.00
44063;DHT22;29727;47.606;19.130;2023-05-07T11:03:14;23.40;57.10
44063;DHT22;29727;47.606;19.130;2023-05-07T11:05:41;23.50;57.30
44063;DHT22;29727;47.606;19.130;2023-05-07T11:08:08;23.50;57.60
44063;DHT22;29727;47.606;19.130;2023-05-07T11:10:50;23.50;57.30
44063;DHT22;29727;47.606;19.130;2023-05-07T11:13:16;23.60;56.50
44063;DHT22;29727;47.606;19.130;2023-05-07T11:15:47;23.70;56.00
44063;DHT22;29727;47.606;19.130;2023-05-07T11:18:15;23.70;56.80
44063;DHT22;29727;47.606;19.130;2023-05-07T11:26:10;23.90;55.90
44063;DHT22;29727;47.606;19.130;2023-05-07T11:28:41;24.00;55.80
44063;DHT22;29727;47.606;19.130;2023-05-07T11:31:07;24.20;56.50
44063;DHT22;29727;47.606;19.130;2023-05-07T11:33:33;24.40;55.40
44063;DHT22;29727;47.606;19.130;2023-05-07T11:36:00;24.60;54.00
44063;DHT22;29727;47.606;19.130;2023-05-07T11:38:26;24.60;53.50
44063;DHT22;29727;47.606;19.130;2023-05-07T11:40:54;24.70;55.10
44063;DHT22;29727;47.606;19.130;2023-05-07T11:43:20;24.80;52.00
44063;DHT22;29727;47.606;19.130;2023-05-07T11:45:46;24.90;52.80
44063;DHT22;29727;47.606;19.130;2023-05-07T11:48:13;25.10;51.60
44063;DHT22;29727;47.606;19.130;2023-05-07T11:50:52;25.20;50.20
44063;DHT22;29727;47.606;19.130;2023-05-07T11:53:19;25.30;48.70
44063;DHT22;29727;47.606;19.130;2023-05-07T11:55:46;25.30;50.40
44063;DHT22;29727;47.606;19.130;2023-05-07T11:58:15;25.20;50.70
44063;DHT22;29727;47.606;19.130;2023-05-07T12:00:53;24.90;50.50
44063;DHT22;29727;47.606;19.130;2023-05-07T12:03:19;24.80;51.30
44063;DHT22;29727;47.606;19.130;2023-05-07T12:05:45;24.30;52.00
44063;DHT22;29727;47.606;19.130;2023-05-07T12:08:21;24.20;52.80
44063;DHT22;29727;47.606;19.130;2023-05-07T12:10:50;24.10;52.50
44063;DHT22;29727;47.606;19.130;2023-05-07T12:13:21;24.00;51.00
44063;DHT22;29727;47.606;19.130;2023-05-07T12:15:50;23.90;51.80
44063;DHT22;29727;47.606;19.130;2023-05-07T12:18:15;23.90;53.20
44063;DHT22;29727;47.606;19.130;2023-05-07T12:20:42;23.90;53.30
44063;DHT22;29727;47.606;19.130;2023-05-07T12:23:08;23.90;54.30
44063;DHT22;29727;47.606;19.130;2023-05-07T12:25:38;23.90;52.70
44063;DHT22;29727;47.606;19.130;2023-05-07T12:28:04;24.00;54.00
44063;DHT22;29727;47.606;19.130;2023-05-07T12:30:40;24.10;53.80
44063;DHT22;29727;47.606;19.130;2023-05-07T12:33:06;24.20;53.70
44063;DHT22;29727;47.606;19.130;2023-05-07T12:35:37;24.40;52.60
44063;DHT22;29727;47.606;19.130;2023-05-07T12:38:08;24.60;51.70
44063;DHT22;29727;47.606;19.130;2023-05-07T12:40:41;24.90;51.90
44063;DHT22;29727;47.606;19.130;2023-05-07T12:43:14;25.20;51.10
44063;DHT22;29727;47.606;19.130;2023-05-07T12:45:41;25.40;50.90
44063;DHT22;29727;47.606;19.130;2023-05-07T12:48:10;25.60;49.10
44063;DHT22;29727;47.606;19.130;2023-05-07T12:50:37;25.80;46.30
44063;DHT22;29727;47.606;19.130;2023-05-07T12:53:04;25.80;47.60
44063;DHT22;29727;47.606;19.130;2023-05-07T12:55:49;25.80;47.40
44063;DHT22;29727;47.606;19.130;2023-05-07T12:58:19;25.80;47.90
44063;DHT22;29727;47.606;19.130;2023-05-07T13:00:47;25.80;47.90
44063;DHT22;29727;47.606;19.130;2023-05-07T13:03:24;25.80;46.60
44063;DHT22;29727;47.606;19.130;2023-05-07T13:05:50;25.60;47.40
44063;DHT22;29727;47.606;19.130;2023-05-07T13:08:36;25.50;46.70
44063;DHT22;29727;47.606;19.130;2023-05-07T13:11:03;25.20;47.00
44063;DHT22;29727;47.606;19.130;2023-05-07T13:13:35;25.00;48.00
44063;DHT22;29727;47.606;19.130;2023-05-07T13:16:01;25.00;49.00
44063;DHT22;29727;47.606;19.130;2023-05-07T13:18:30;25.00;48.90
44063;DHT22;29727;47.606;19.130;2023-05-07T13:20:56;25.10;47.90
44063;DHT22;29727;47.606;19.130;2023-05-07T13:23:22;25.10;47.70
44063;DHT22;29727;47.606;19.130;2023-05-07T13:25:48;25.20;47.60
44063;DHT22;29727;47.606;19.130;2023-05-07T13:28:15;25.30;46.60
44063;DHT22;29727;47.606;19.130;2023-05-07T13:30:41;25.40;47.90
44063;DHT22;29727;47.606;19.130;2023-05-07T13:33:07;25.50;48.10
44063;DHT22;29727;47.606;19.130;2023-05-07T13:35:33;25.50;47.50
44063;DHT22;29727;47.606;19.130;2023-05-07T13:37:58;25.40;46.00
44063;DHT22;29727;47.606;19.130;2023-05-07T13:40:24;25.30;46.50
44063;DHT22;29727;47.606;19.130;2023-05-07T13:42:50;25.20;46.80
44063;DHT22;29727;47.606;19.130;2023-05-07T13:45:17;25.20;47.10
44063;DHT22;29727;47.606;19.130;2023-05-07T13:47:43;25.10;48.00
44063;DHT22;29727;47.606;19.130;2023-05-07T13:50:10;25.00;47.50
44063;DHT22;29727;47.606;19.130;2023-05-07T13:52:37;24.90;47.70
44063;DHT22;29727;47.606;19.130;2023-05-07T13:55:03;24.80;47.60
44063;DHT22;29727;47.606;19.130;2023-05-07T13:57:29;24.70;48.60
44063;DHT22;29727;47.606;19.130;2023-05-07T13:59:55;24.70;48.90
44063;DHT22;29727;47.606;19.130;2023-05-07T14:02:20;24.80;47.20
44063;DHT22;29727;47.606;19.130;2023-05-07T14:04:46;24.70;47.80
44063;DHT22;29727;47.606;19.130;2023-05-07T14:07:12;24.70;46.60
44063;DHT22;29727;47.606;19.130;2023-05-07T14:09:37;24.70;47.00
44063;DHT22;29727;47.606;19.130;2023-05-07T14:12:03;24.70;47.10
44063;DHT22;29727;47.606;19.130;2023-05-07T14:14:30;24.70;47.80
44063;DHT22;29727;47.606;19.130;2023-05-07T14:16:55;24.70;48.30
44063;DHT22;29727;47.606;19.130;2023-05-07T14:19:21;24.70;47.50
44063;DHT22;29727;47.606;19.130;2023-05-07T14:21:48;24.80;47.90
44063;DHT22;29727;47.606;19.130;2023-05-07T14:24:14;25.00;48.00
44063;DHT22;29727;47.606;19.130;2023-05-07T14:26:40;24.90;48.50
44063;DHT22;29727;47.606;19.130;2023-05-07T14:29:05;24.90;48.00
44063;DHT22;29727;47.606;19.130;2023-05-07T14:31:31;25.00;47.90
44063;DHT22;29727;47.606;19.130;2023-05-07T14:33:59;25.00;47.00
44063;DHT22;29727;47.606;19.130;2023-05-07T14:36:25;25.00;46.70
44063;DHT22;29727;47.606;19.130;2023-05-07T14:38:55;24.90;46.90
44063;DHT22;29727;47.606;19.130;2023-05-07T14:41:24;24.80;46.90
44063;DHT22;29727;47.606;19.130;2023-05-07T14:43:50;24.70;47.60
44063;DHT22;29727;47.606;19.130;2023-05-07T14:46:17;24.70;48.10
44063;DHT22;29727;47.606;19.130;2023-05-07T14:48:44;24.70;47.30
44063;DHT22;29727;47.606;19.130;2023-05-07T14:51:10;24.60;47.30
44063;DHT22;29727;47.606;19.130;2023-05-07T14:53:36;24.60;47.80
44063;DHT22;29727;47.606;19.130;2023-05-07T14:56:02;24.60;48.10
44063;DHT22;29727;47.606;19.130;2023-05-07T14:58:28;24.50;47.80
44063;DHT22;29727;47.606;19.130;2023-05-07T15:00:54;24.50;47.50
44063;DHT22;29727;47.606;19.130;2023-05-07T15:03:20;24.40;47.90
44063;DHT22;29727;47.606;19.130;2023-05-07T15:05:47;24.40;48.40
44063;DHT22;29727;47.606;19.130;2023-05-07T15:08:12;24.40;47.70
44063;DHT22;29727;47.606;19.130;2023-05-07T15:10:38;24.30;48.60
44063;DHT22;29727;47.606;19.130;2023-05-07T15:13:07;24.30;48.10
44063;DHT22;29727;47.606;19.130;2023-05-07T15:15:33;24.30;48.60
44063;DHT22;29727;47.606;19.130;2023-05-07T15:17:59;24.20;48.20
44063;DHT22;29727;47.606;19.130;2023-05-07T15:20:27;24.20;48.90
44063;DHT22;29727;47.606;19.130;2023-05-07T15:22:53;24.20;48.00
44063;DHT22;29727;47.606;19.130;2023-05-07T15:25:18;24.10;47.60
44063;DHT22;29727;47.606;19.130;2023-05-07T15:27:45;24.10;48.70
44063;DHT22;29727;47.606;19.130;2023-05-07T16:18:27;23.40;48.60
44063;DHT22;29727;47.606;19.130;2023-05-07T16:20:52;23.30;49.50
44063;DHT22;29727;47.606;19.130;2023-05-07T16:23:19;23.30;49.20
44063;DHT22;29727;47.606;19.130;2023-05-07T16:25:45;23.30;49.80
44063;DHT22;29727;47.606;19.130;2023-05-07T16:28:11;23.30;50.50
44063;DHT22;29727;47.606;19.130;2023-05-07T16:30:36;23.30;49.50
44063;DHT22;29727;47.606;19.130;2023-05-07T16:33:02;23.20;49.90
44063;DHT22;29727;47.606;19.130;2023-05-07T16:35:28;23.20;49.90
44063;DHT22;29727;47.606;19.130;2023-05-07T16:37:53;23.10;49.60
44063;DHT22;29727;47.606;19.130;2023-05-07T16:40:19;23.10;49.80
44063;DHT22;29727;47.606;19.130;2023-05-07T16:42:45;23.10;50.20
44063;DHT22;29727;47.606;19.130;2023-05-07T16:45:11;23.00;49.60
44063;DHT22;29727;47.606;19.130;2023-05-07T16:47:37;23.00;49.20
44063;DHT22;29727;47.606;19.130;2023-05-07T16:50:02;24.30;50.20
44063;DHT22;29727;47.606;19.130;2023-05-07T16:52:30;22.80;49.70
44063;DHT22;29727;47.606;19.130;2023-05-07T16:54:56;22.60;49.40
44063;DHT22;29727;47.606;19.130;2023-05-07T16:57:26;22.50;49.90
44063;DHT22;29727;47.606;19.130;2023-05-07T16:59:52;22.40;50.00
44063;DHT22;29727;47.606;19.130;2023-05-07T17:02:20;22.30;50.20
44063;DHT22;29727;47.606;19.130;2023-05-07T17:04:45;22.30;50.20
44063;DHT22;29727;47.606;19.130;2023-05-07T17:07:11;22.20;50.90
44063;DHT22;29727;47.606;19.130;2023-05-07T17:09:37;22.20;50.80
44063;DHT22;29727;47.606;19.130;2023-05-07T17:12:03;22.10;50.80
44063;DHT22;29727;47.606;19.130;2023-05-07T17:14:28;22.10;51.20
44063;DHT22;29727;47.606;19.130;2023-05-07T17:16:54;22.10;51.40
44063;DHT22;29727;47.606;19.130;2023-05-07T17:19:21;22.00;51.40
44063;DHT22;29727;47.606;19.130;2023-05-07T17:21:47;22.00;51.40
44063;DHT22;29727;47.606;19.130;2023-05-07T17:24:12;21.90;50.90
44063;DHT22;29727;47.606;19.130;2023-05-07T17:26:38;21.90;51.30
44063;DHT22;29727;47.606;19.130;2023-05-07T17:29:07;21.80;51.10
44063;DHT22;29727;47.606;19.130;2023-05-07T17:31:33;21.70;50.70
44063;DHT22;29727;47.606;19.130;2023-05-07T17:33:58;21.70;51.00
44063;DHT22;29727;47.606;19.130;2023-05-07T17:36:24;21.60;51.00
44063;DHT22;29727;47.606;19.130;2023-05-07T17:38:50;21.50;51.40
44063;DHT22;29727;47.606;19.130;2023-05-07T17:41:15;21.50;51.30
44063;DHT22;29727;47.606;19.130;2023-05-07T17:43:41;21.50;51.40
44063;DHT22;29727;47.606;19.130;2023-05-07T17:46:08;21.40;51.10
44063;DHT22;29727;47.606;19.130;2023-05-07T17:48:33;21.30;51.70
44063;DHT22;29727;47.606;19.130;2023-05-07T17:51:00;21.20;51.90
44063;DHT22;29727;47.606;19.130;2023-05-07T17:53:26;21.20;52.00
44063;DHT22;29727;47.606;19.130;2023-05-07T17:55:53;21.10;52.50
44063;DHT22;29727;47.606;19.130;2023-05-07T17:58:18;21.10;52.30
44063;DHT22;29727;47.606;19.130;2023-05-07T18:00:46;21.00;52.10
44063;DHT22;29727;47.606;19.130;2023-05-07T18:03:11;20.90;52.80
44063;DHT22;29727;47.606;19.130;2023-05-07T18:05:37;20.90;53.10
44063;DHT22;29727;47.606;19.130;2023-05-07T18:08:05;20.90;52.40
44063;DHT22;29727;47.606;19.130;2023-05-07T18:10:30;20.80;52.80
44063;DHT22;29727;47.606;19.130;2023-05-07T18:12:56;20.80;53.00
44063;DHT22;29727;47.606;19.130;2023-05-07T18:15:22;20.80;53.60
44063;DHT22;29727;47.606;19.130;2023-05-07T18:17:48;20.80;53.70
44063;DHT22;29727;47.606;19.130;2023-05-07T18:20:13;20.90;53.30
44063;DHT22;29727;47.606;19.130;2023-05-07T18:22:39;20.90;53.70
44063;DHT22;29727;47.606;19.130;2023-05-07T18:25:05;20.90;51.80
44063;DHT22;29727;47.606;19.130;2023-05-07T18:27:31;20.90;52.10
44063;DHT22;29727;47.606;19.130;2023-05-07T18:29:57;20.90;52.50
44063;DHT22;29727;47.606;19.130;2023-05-07T18:32:22;20.80;52.80
44063;DHT22;29727;47.606;19.130;2023-05-07T18:34:48;20.70;52.70
44063;DHT22;29727;47.606;19.130;2023-05-07T18:37:14;20.70;53.30
44063;DHT22;29727;47.606;19.130;2023-05-07T19:53:13;18.10;60.80
44063;DHT22;29727;47.606;19.130;2023-05-07T19:55:38;18.10;60.20
44063;DHT22;29727;47.606;19.130;2023-05-07T19:58:04;18.10;59.70
44063;DHT22;29727;47.606;19.130;2023-05-07T20:00:30;18.00;59.70
44063;DHT22;29727;47.606;19.130;2023-05-07T20:02:57;18.00;59.10
44063;DHT22;29727;47.606;19.130;2023-05-07T20:05:23;17.90;59.60
44063;DHT22;29727;47.606;19.130;2023-05-07T20:07:52;17.80;60.00
44063;DHT22;29727;47.606;19.130;2023-05-07T20:10:18;17.70;60.10
44063;DHT22;29727;47.606;19.130;2023-05-07T20:12:44;17.70;59.80
44063;DHT22;29727;47.606;19.130;2023-05-07T20:15:10;17.80;59.00
44063;DHT22;29727;47.606;19.130;2023-05-07T20:17:35;17.70;59.30
44063;DHT22;29727;47.606;19.130;2023-05-07T20:20:01;17.70;59.10
44063;DHT22;29727;47.606;19.130;2023-05-07T20:22:30;17.70;58.00
44063;DHT22;29727;47.606;19.130;2023-05-07T20:24:56;17.70;58.50
44063;DHT22;29727;47.606;19.130;2023-05-07T20:27:22;17.70;58.50
44063;DHT22;29727;47.606;19.130;2023-05-07T20:29:52;17.70;58.00
44063;DHT22;29727;47.606;19.130;2023-05-07T20:32:18;17.70;58.10
44063;DHT22;29727;47.606;19.130;2023-05-07T20:34:44;17.70;57.90
44063;DHT22;29727;47.606;19.130;2023-05-07T20:37:12;17.70;58.10
44063;DHT22;29727;47.606;19.130;2023-05-07T20:39:42;17.60;58.60